sensor_id;sensor_type;location;lat;lon;timestamp;temperature;humidity
12225;DHT22;6175;50.956;11.064;2022-08-19T00:00:10;21.10;99.90
12225;DHT22;6175;50.956;11.064;2022-08-19T00:02:39;21.10;99.90
12225;DHT22;6175;50.956;11.064;2022-08-19T00:05:07;21.00;99.90
12225;DHT22;6175;50.956;11.064;2022-08-19T00:10:02;21.10;99.90
12225;DHT22;6175;50.956;11.064;2022-08-19T00:12:30;21.10;99.90
12225;DHT22;6175;50.956;11.064;2022-08-19T00:14:57;21.20;99.90
12225;DHT22;6175;50.956;11.064;2022-08-19T00:17:24;21.10;99.90
12225;DHT22;6175;50.956;11.064;2022-08-19T00:19:51;21.20;99.90
12225;DHT22;6175;50.956;11.064;2022-08-19T00:27:13;21.20;99.90
12225;DHT22;6175;50.956;11.064;2022-08-19T00:29:42;21.20;99.90
12225;DHT22;6175;50.956;11.064;2022-08-19T00:41:59;21.00;99.90
12225;DHT22;6175;50.956;11.064;2022-08-19T00:44:28;21.00;99.90
12225;DHT22;6175;50.956;11.064;2022-08-19T00:46:58;21.00;99.90
12225;DHT22;6175;50.956;11.064;2022-08-19T00:49:29;20.90;99.90
12225;DHT22;6175;50.956;11.064;2022-08-19T00:52:02;20.80;99.90
12225;DHT22;6175;50.956;11.064;2022-08-19T00:54:29;20.80;99.90
12225;DHT22;6175;50.956;11.064;2022-08-19T00:56:58;20.80;99.90
12225;DHT22;6175;50.956;11.064;2022-08-19T00:59:28;20.80;99.90
12225;DHT22;6175;50.956;11.064;2022-08-19T01:04:24;20.80;99.90
12225;DHT22;6175;50.956;11.064;2022-08-19T01:06:50;20.80;99.90
12225;DHT22;6175;50.956;11.064;2022-08-19T01:09:17;20.80;99.90
12225;DHT22;6175;50.956;11.064;2022-08-19T01:14:12;20.80;99.90
12225;DHT22;6175;50.956;11.064;2022-08-19T01:16:40;20.70;99.90
12225;DHT22;6175;50.956;11.064;2022-08-19T01:19:12;20.70;99.90
12225;DHT22;6175;50.956;11.064;2022-08-19T01:21:47;20.70;99.90
12225;DHT22;6175;50.956;11.064;2022-08-19T01:24:17;20.70;99.90
12225;DHT22;6175;50.956;11.064;2022-08-19T01:26:46;20.60;99.90
12225;DHT22;6175;50.956;11.064;2022-08-19T01:29:14;20.50;99.90
12225;DHT22;6175;50.956;11.064;2022-08-19T01:36:38;20.50;99.90
12225;DHT22;6175;50.956;11.064;2022-08-19T01:39:10;20.50;99.90
12225;DHT22;6175;50.956;11.064;2022-08-19T01:41:39;20.50;99.90
12225;DHT22;6175;50.956;11.064;2022-08-19T01:44:07;20.50;99.90
12225;DHT22;6175;50.956;11.064;2022-08-19T01:46:35;20.50;99.90
12225;DHT22;6175;50.956;11.064;2022-08-19T01:49:03;20.40;99.90
12225;DHT22;6175;50.956;11.064;2022-08-19T01:51:31;20.40;99.90
12225;DHT22;6175;50.956;11.064;2022-08-19T01:53:58;20.40;99.90
12225;DHT22;6175;50.956;11.064;2022-08-19T01:56:25;20.40;99.90
12225;DHT22;6175;50.956;11.064;2022-08-19T01:58:55;20.20;99.90
12225;DHT22;6175;50.956;11.064;2022-08-19T02:03:51;20.40;99.90
12225;DHT22;6175;50.956;11.064;2022-08-19T02:06:20;20.40;99.90
12225;DHT22;6175;50.956;11.064;2022-08-19T02:08:47;20.30;99.90
12225;DHT22;6175;50.956;11.064;2022-08-19T02:11:20;20.30;99.90
12225;DHT22;6175;50.956;11.064;2022-08-19T02:13:47;20.20;99.90
12225;DHT22;6175;50.956;11.064;2022-08-19T02:16:17;20.20;99.90
12225;DHT22;6175;50.956;11.064;2022-08-19T02:18:44;20.20;99.90
12225;DHT22;6175;50.956;11.064;2022-08-19T02:21:14;20.20;99.90
12225;DHT22;6175;50.956;11.064;2022-08-19T02:23:41;20.20;99.90
12225;DHT22;6175;50.956;11.064;2022-08-19T02:28:35;20.20;99.90
12225;DHT22;6175;50.956;11.064;2022-08-19T02:33:31;20.20;99.90
12225;DHT22;6175;50.956;11.064;2022-08-19T02:35:58;20.20;99.90
12225;DHT22;6175;50.956;11.064;2022-08-19T02:40:54;20.20;99.90
12225;DHT22;6175;50.956;11.064;2022-08-19T02:45:49;20.10;99.90
12225;DHT22;6175;50.956;11.064;2022-08-19T02:48:18;20.10;99.90
12225;DHT22;6175;50.956;11.064;2022-08-19T02:50:47;20.10;99.90
12225;DHT22;6175;50.956;11.064;2022-08-19T02:55:47;20.10;99.90
12225;DHT22;6175;50.956;11.064;2022-08-19T02:58:16;20.10;99.90
12225;DHT22;6175;50.956;11.064;2022-08-19T03:05:40;20.10;99.90
12225;DHT22;6175;50.956;11.064;2022-08-19T03:08:08;20.20;99.90
12225;DHT22;6175;50.956;11.064;2022-08-19T03:10:41;20.10;99.90
12225;DHT22;6175;50.956;11.064;2022-08-19T03:13:11;20.20;99.90
12225;DHT22;6175;50.956;11.064;2022-08-19T03:15:42;20.10;99.90
12225;DHT22;6175;50.956;11.064;2022-08-19T03:18:09;20.10;99.90
12225;DHT22;6175;50.956;11.064;2022-08-19T03:20:41;20.10;99.90
12225;DHT22;6175;50.956;11.064;2022-08-19T03:23:10;20.10;99.90
12225;DHT22;6175;50.956;11.064;2022-08-19T03:25:38;20.20;99.90
12225;DHT22;6175;50.956;11.064;2022-08-19T03:28:09;20.20;99.90
12225;DHT22;6175;50.956;11.064;2022-08-19T03:30:36;20.20;99.90
12225;DHT22;6175;50.956;11.064;2022-08-19T03:33:03;20.20;99.90
12225;DHT22;6175;50.956;11.064;2022-08-19T03:37:58;20.20;99.90
12225;DHT22;6175;50.956;11.064;2022-08-19T03:40:26;17.90;99.90
12225;DHT22;6175;50.956;11.064;2022-08-19T03:47:50;20.20;99.90
12225;DHT22;6175;50.956;11.064;2022-08-19T03:50:17;20.30;99.90
12225;DHT22;6175;50.956;11.064;2022-08-19T03:52:48;20.30;99.90
12225;DHT22;6175;50.956;11.064;2022-08-19T03:55:15;20.30;99.90
12225;DHT22;6175;50.956;11.064;2022-08-19T04:00:14;20.40;99.90
12225;DHT22;6175;50.956;11.064;2022-08-19T04:05:09;20.40;99.90
12225;DHT22;6175;50.956;11.064;2022-08-19T04:07:38;20.30;99.90
12225;DHT22;6175;50.956;11.064;2022-08-19T04:10:05;20.40;99.90
12225;DHT22;6175;50.956;11.064;2022-08-19T04:15:02;20.30;99.90
12225;DHT22;6175;50.956;11.064;2022-08-19T04:17:30;20.30;99.90
12225;DHT22;6175;50.956;11.064;2022-08-19T04:19:57;20.20;99.90
12225;DHT22;6175;50.956;11.064;2022-08-19T04:22:24;20.20;99.90
12225;DHT22;6175;50.956;11.064;2022-08-19T04:24:51;20.20;99.90
12225;DHT22;6175;50.956;11.064;2022-08-19T04:27:18;20.10;99.90
12225;DHT22;6175;50.956;11.064;2022-08-19T04:29:46;20.10;99.90
12225;DHT22;6175;50.956;11.064;2022-08-19T04:32:14;20.10;99.90
12225;DHT22;6175;50.956;11.064;2022-08-19T04:34:41;20.10;99.90
12225;DHT22;6175;50.956;11.064;2022-08-19T04:39:38;20.00;99.90
12225;DHT22;6175;50.956;11.064;2022-08-19T04:45:06;19.90;99.90
12225;DHT22;6175;50.956;11.064;2022-08-19T04:47:36;19.80;99.90
12225;DHT22;6175;50.956;11.064;2022-08-19T04:50:04;19.80;99.90
12225;DHT22;6175;50.956;11.064;2022-08-19T04:52:31;19.80;99.90
12225;DHT22;6175;50.956;11.064;2022-08-19T04:54:58;19.80;99.90
12225;DHT22;6175;50.956;11.064;2022-08-19T04:57:25;19.80;99.90
12225;DHT22;6175;50.956;11.064;2022-08-19T04:59:53;19.80;99.90
12225;DHT22;6175;50.956;11.064;2022-08-19T05:02:20;19.80;99.90
12225;DHT22;6175;50.956;11.064;2022-08-19T05:04:49;19.80;99.90
12225;DHT22;6175;50.956;11.064;2022-08-19T05:07:16;19.80;99.90
12225;DHT22;6175;50.956;11.064;2022-08-19T05:14:38;19.90;99.90
12225;DHT22;6175;50.956;11.064;2022-08-19T05:17:05;19.90;99.90
12225;DHT22;6175;50.956;11.064;2022-08-19T05:19:32;19.90;99.90
12225;DHT22;6175;50.956;11.064;2022-08-19T05:22:18;19.80;99.90
12225;DHT22;6175;50.956;11.064;2022-08-19T05:37:19;19.90;99.90
12225;DHT22;6175;50.956;11.064;2022-08-19T05:39:47;19.90;99.90
12225;DHT22;6175;50.956;11.064;2022-08-19T05:42:14;19.90;99.90
12225;DHT22;6175;50.956;11.064;2022-08-19T05:44:43;19.90;99.90
12225;DHT22;6175;50.956;11.064;2022-08-19T05:47:12;19.90;99.90
12225;DHT22;6175;50.956;11.064;2022-08-19T05:49:40;19.90;99.90
12225;DHT22;6175;50.956;11.064;2022-08-19T05:52:11;20.00;99.90
12225;DHT22;6175;50.956;11.064;2022-08-19T05:54:41;20.00;99.90
12225;DHT22;6175;50.956;11.064;2022-08-19T05:57:09;20.10;99.90
12225;DHT22;6175;50.956;11.064;2022-08-19T06:02:04;20.10;99.90
12225;DHT22;6175;50.956;11.064;2022-08-19T06:11:58;19.90;99.90
12225;DHT22;6175;50.956;11.064;2022-08-19T06:14:28;19.90;99.90
12225;DHT22;6175;50.956;11.064;2022-08-19T06:16:56;19.90;99.90
12225;DHT22;6175;50.956;11.064;2022-08-19T06:21:55;19.80;99.90
12225;DHT22;6175;50.956;11.064;2022-08-19T06:24:25;20.00;99.90
12225;DHT22;6175;50.956;11.064;2022-08-19T06:26:53;19.90;99.90
12225;DHT22;6175;50.956;11.064;2022-08-19T06:29:24;19.90;99.90
12225;DHT22;6175;50.956;11.064;2022-08-19T06:31:54;19.90;99.90
12225;DHT22;6175;50.956;11.064;2022-08-19T06:36:51;19.90;99.90
12225;DHT22;6175;50.956;11.064;2022-08-19T06:39:21;19.90;99.90
12225;DHT22;6175;50.956;11.064;2022-08-19T06:41:52;20.00;99.90
12225;DHT22;6175;50.956;11.064;2022-08-19T06:44:20;20.00;99.90
12225;DHT22;6175;50.956;11.064;2022-08-19T06:47:04;20.00;99.90
12225;DHT22;6175;50.956;11.064;2022-08-19T06:49:31;20.00;99.90
12225;DHT22;6175;50.956;11.064;2022-08-19T06:54:27;20.10;99.90
12225;DHT22;6175;50.956;11.064;2022-08-19T06:56:55;20.10;99.90
12225;DHT22;6175;50.956;11.064;2022-08-19T06:59:24;20.10;99.90
12225;DHT22;6175;50.956;11.064;2022-08-19T07:01:54;20.10;99.90
12225;DHT22;6175;50.956;11.064;2022-08-19T07:04:25;20.10;99.90
12225;DHT22;6175;50.956;11.064;2022-08-19T07:06:58;20.10;99.90
12225;DHT22;6175;50.956;11.064;2022-08-19T07:09:25;20.10;99.90
12225;DHT22;6175;50.956;11.064;2022-08-19T07:11:53;20.10;99.90
12225;DHT22;6175;50.956;11.064;2022-08-19T07:14:23;20.10;99.90
12225;DHT22;6175;50.956;11.064;2022-08-19T07:16:52;20.10;99.90
12225;DHT22;6175;50.956;11.064;2022-08-19T07:19:23;20.10;99.90
12225;DHT22;6175;50.956;11.064;2022-08-19T07:21:52;20.20;99.90
12225;DHT22;6175;50.956;11.064;2022-08-19T07:24:20;20.20;99.90
12225;DHT22;6175;50.956;11.064;2022-08-19T07:26:50;20.20;99.90
12225;DHT22;6175;50.956;11.064;2022-08-19T07:31:45;20.20;99.90
12225;DHT22;6175;50.956;11.064;2022-08-19T07:36:43;20.30;99.90
12225;DHT22;6175;50.956;11.064;2022-08-19T07:39:11;20.40;99.90
12225;DHT22;6175;50.956;11.064;2022-08-19T07:41:39;20.40;99.90
12225;DHT22;6175;50.956;11.064;2022-08-19T07:44:07;20.40;99.90
12225;DHT22;6175;50.956;11.064;2022-08-19T07:46:35;20.50;99.90
12225;DHT22;6175;50.956;11.064;2022-08-19T07:49:05;20.60;99.90
12225;DHT22;6175;50.956;11.064;2022-08-19T07:56:28;20.50;99.90
12225;DHT22;6175;50.956;11.064;2022-08-19T07:58:57;20.40;99.90
12225;DHT22;6175;50.956;11.064;2022-08-19T08:01:26;20.40;99.90
12225;DHT22;6175;50.956;11.064;2022-08-19T08:03:55;20.40;99.90
12225;DHT22;6175;50.956;11.064;2022-08-19T08:06:40;20.50;99.90
12225;DHT22;6175;50.956;11.064;2022-08-19T08:09:29;20.50;99.90
12225;DHT22;6175;50.956;11.064;2022-08-19T08:12:00;20.50;99.90
12225;DHT22;6175;50.956;11.064;2022-08-19T08:14:30;20.50;99.90
12225;DHT22;6175;50.956;11.064;2022-08-19T08:19:26;20.40;99.90
12225;DHT22;6175;50.956;11.064;2022-08-19T08:21:54;20.40;99.90
12225;DHT22;6175;50.956;11.064;2022-08-19T08:24:22;20.50;99.90
12225;DHT22;6175;50.956;11.064;2022-08-19T08:26:51;20.50;99.90
12225;DHT22;6175;50.956;11.064;2022-08-19T08:29:18;20.50;99.90
12225;DHT22;6175;50.956;11.064;2022-08-19T08:31:46;19.30;99.90
12225;DHT22;6175;50.956;11.064;2022-08-19T08:34:14;20.50;99.90
12225;DHT22;6175;50.956;11.064;2022-08-19T08:36:44;20.50;99.90
12225;DHT22;6175;50.956;11.064;2022-08-19T08:39:13;20.50;99.90
12225;DHT22;6175;50.956;11.064;2022-08-19T08:41:47;20.50;99.90
12225;DHT22;6175;50.956;11.064;2022-08-19T08:44:21;20.50;99.90
12225;DHT22;6175;50.956;11.064;2022-08-19T08:46:51;20.50;99.90
12225;DHT22;6175;50.956;11.064;2022-08-19T08:49:28;20.60;99.90
12225;DHT22;6175;50.956;11.064;2022-08-19T08:52:02;20.60;99.90
12225;DHT22;6175;50.956;11.064;2022-08-19T08:54:33;17.70;99.90
12225;DHT22;6175;50.956;11.064;2022-08-19T08:57:03;20.70;99.90
12225;DHT22;6175;50.956;11.064;2022-08-19T08:59:35;20.70;99.90
12225;DHT22;6175;50.956;11.064;2022-08-19T09:02:04;20.70;99.90
12225;DHT22;6175;50.956;11.064;2022-08-19T09:04:31;20.80;99.90
12225;DHT22;6175;50.956;11.064;2022-08-19T09:07:12;20.80;99.90
12225;DHT22;6175;50.956;11.064;2022-08-19T09:09:43;20.80;99.90
12225;DHT22;6175;50.956;11.064;2022-08-19T09:12:17;20.80;99.90
12225;DHT22;6175;50.956;11.064;2022-08-19T09:14:52;20.90;99.90
12225;DHT22;6175;50.956;11.064;2022-08-19T09:17:24;20.80;99.90
12225;DHT22;6175;50.956;11.064;2022-08-19T09:19:57;20.80;99.90
12225;DHT22;6175;50.956;11.064;2022-08-19T09:22:26;20.80;99.90
12225;DHT22;6175;50.956;11.064;2022-08-19T09:24:54;20.80;99.90
12225;DHT22;6175;50.956;11.064;2022-08-19T09:29:50;20.80;99.90
12225;DHT22;6175;50.956;11.064;2022-08-19T09:39:40;21.00;99.90
12225;DHT22;6175;50.956;11.064;2022-08-19T09:44:39;21.00;99.90
12225;DHT22;6175;50.956;11.064;2022-08-19T09:47:08;21.00;99.90
12225;DHT22;6175;50.956;11.064;2022-08-19T09:49:36;21.00;99.90
12225;DHT22;6175;50.956;11.064;2022-08-19T09:54:33;20.90;99.90
12225;DHT22;6175;50.956;11.064;2022-08-19T09:57:00;20.90;99.90
12225;DHT22;6175;50.956;11.064;2022-08-19T10:01:54;20.90;99.90
12225;DHT22;6175;50.956;11.064;2022-08-19T10:04:23;21.00;99.90
12225;DHT22;6175;50.956;11.064;2022-08-19T10:07:10;21.10;99.90
12225;DHT22;6175;50.956;11.064;2022-08-19T10:09:37;21.20;99.90
12225;DHT22;6175;50.956;11.064;2022-08-19T10:12:07;21.20;99.90
12225;DHT22;6175;50.956;11.064;2022-08-19T10:14:34;21.30;99.90
12225;DHT22;6175;50.956;11.064;2022-08-19T10:22:03;21.30;99.90
12225;DHT22;6175;50.956;11.064;2022-08-19T10:26:57;21.40;99.90
12225;DHT22;6175;50.956;11.064;2022-08-19T10:31:53;21.60;99.90
12225;DHT22;6175;50.956;11.064;2022-08-19T10:36:50;21.60;99.90
12225;DHT22;6175;50.956;11.064;2022-08-19T10:39:17;21.50;99.90
12225;DHT22;6175;50.956;11.064;2022-08-19T10:41:44;21.40;99.90
12225;DHT22;6175;50.956;11.064;2022-08-19T10:44:12;21.50;99.90
12225;DHT22;6175;50.956;11.064;2022-08-19T10:46:41;21.50;99.90
12225;DHT22;6175;50.956;11.064;2022-08-19T10:49:10;21.50;99.90
12225;DHT22;6175;50.956;11.064;2022-08-19T10:51:38;21.50;99.90
12225;DHT22;6175;50.956;11.064;2022-08-19T10:54:24;21.60;99.90
12225;DHT22;6175;50.956;11.064;2022-08-19T10:59:38;21.80;99.90
12225;DHT22;6175;50.956;11.064;2022-08-19T11:02:08;22.00;99.90
12225;DHT22;6175;50.956;11.064;2022-08-19T11:04:35;22.00;99.90
12225;DHT22;6175;50.956;11.064;2022-08-19T11:07:03;22.10;99.90
12225;DHT22;6175;50.956;11.064;2022-08-19T11:09:37;22.10;99.90
12225;DHT22;6175;50.956;11.064;2022-08-19T11:12:04;22.20;99.90
12225;DHT22;6175;50.956;11.064;2022-08-19T11:14:33;22.30;99.90
12225;DHT22;6175;50.956;11.064;2022-08-19T11:17:02;22.30;99.90
12225;DHT22;6175;50.956;11.064;2022-08-19T11:19:30;22.40;99.90
12225;DHT22;6175;50.956;11.064;2022-08-19T11:21:58;22.30;99.90
12225;DHT22;6175;50.956;11.064;2022-08-19T11:24:27;22.40;99.90
12225;DHT22;6175;50.956;11.064;2022-08-19T11:27:02;22.40;99.90
12225;DHT22;6175;50.956;11.064;2022-08-19T11:29:31;22.50;99.90
12225;DHT22;6175;50.956;11.064;2022-08-19T11:32:00;22.70;99.90
12225;DHT22;6175;50.956;11.064;2022-08-19T11:34:30;22.80;99.90
12225;DHT22;6175;50.956;11.064;2022-08-19T11:36:57;22.90;99.90
12225;DHT22;6175;50.956;11.064;2022-08-19T11:39:27;23.00;99.90
12225;DHT22;6175;50.956;11.064;2022-08-19T11:41:57;23.10;99.90
12225;DHT22;6175;50.956;11.064;2022-08-19T11:54:16;23.60;99.90
12225;DHT22;6175;50.956;11.064;2022-08-19T11:56:44;23.60;99.90
12225;DHT22;6175;50.956;11.064;2022-08-19T12:04:10;23.60;99.90
12225;DHT22;6175;50.956;11.064;2022-08-19T12:06:38;23.60;99.90
12225;DHT22;6175;50.956;11.064;2022-08-19T12:09:08;23.70;99.90
12225;DHT22;6175;50.956;11.064;2022-08-19T12:16:32;24.10;99.40
12225;DHT22;6175;50.956;11.064;2022-08-19T12:19:00;24.30;98.50
12225;DHT22;6175;50.956;11.064;2022-08-19T12:21:30;24.30;98.40
12225;DHT22;6175;50.956;11.064;2022-08-19T12:23:59;24.50;98.10
12225;DHT22;6175;50.956;11.064;2022-08-19T12:26:27;24.60;98.00
12225;DHT22;6175;50.956;11.064;2022-08-19T12:28:57;24.90;97.60
12225;DHT22;6175;50.956;11.064;2022-08-19T12:31:25;25.10;97.20
12225;DHT22;6175;50.956;11.064;2022-08-19T12:33:55;25.40;96.40
12225;DHT22;6175;50.956;11.064;2022-08-19T12:38:51;25.50;96.00
12225;DHT22;6175;50.956;11.064;2022-08-19T12:43:47;25.40;95.20
12225;DHT22;6175;50.956;11.064;2022-08-19T12:51:14;25.10;94.50
12225;DHT22;6175;50.956;11.064;2022-08-19T12:53:41;25.00;94.80
12225;DHT22;6175;50.956;11.064;2022-08-19T12:56:10;25.00;94.80
12225;DHT22;6175;50.956;11.064;2022-08-19T12:58:40;24.90;94.50
12225;DHT22;6175;50.956;11.064;2022-08-19T13:01:08;24.90;94.50
12225;DHT22;6175;50.956;11.064;2022-08-19T13:06:03;24.90;94.80
12225;DHT22;6175;50.956;11.064;2022-08-19T13:08:31;24.70;94.30
12225;DHT22;6175;50.956;11.064;2022-08-19T13:11:07;24.50;94.90
12225;DHT22;6175;50.956;11.064;2022-08-19T13:16:01;24.80;94.00
12225;DHT22;6175;50.956;11.064;2022-08-19T13:23:24;25.10;93.00
12225;DHT22;6175;50.956;11.064;2022-08-19T13:25:58;25.10;92.30
12225;DHT22;6175;50.956;11.064;2022-08-19T13:28:25;25.20;91.80
12225;DHT22;6175;50.956;11.064;2022-08-19T13:31:15;25.30;91.90
12225;DHT22;6175;50.956;11.064;2022-08-19T13:33:59;25.40;91.80
12225;DHT22;6175;50.956;11.064;2022-08-19T13:38:53;25.70;91.40
12225;DHT22;6175;50.956;11.064;2022-08-19T13:41:21;25.70;90.80
12225;DHT22;6175;50.956;11.064;2022-08-19T13:43:48;25.70;91.40
12225;DHT22;6175;50.956;11.064;2022-08-19T13:46:15;25.60;91.00
12225;DHT22;6175;50.956;11.064;2022-08-19T13:48:42;25.60;91.10
12225;DHT22;6175;50.956;11.064;2022-08-19T13:51:09;25.60;90.10
12225;DHT22;6175;50.956;11.064;2022-08-19T13:53:37;25.70;89.00
12225;DHT22;6175;50.956;11.064;2022-08-19T13:56:05;25.60;89.90
12225;DHT22;6175;50.956;11.064;2022-08-19T13:58:34;25.60;89.20
12225;DHT22;6175;50.956;11.064;2022-08-19T14:01:00;25.70;89.00
12225;DHT22;6175;50.956;11.064;2022-08-19T14:03:27;25.80;89.10
12225;DHT22;6175;50.956;11.064;2022-08-19T14:08:21;25.90;86.20
12225;DHT22;6175;50.956;11.064;2022-08-19T14:10:49;25.80;85.80
12225;DHT22;6175;50.956;11.064;2022-08-19T14:13:17;25.70;86.50
12225;DHT22;6175;50.956;11.064;2022-08-19T14:15:46;25.70;86.10
12225;DHT22;6175;50.956;11.064;2022-08-19T14:18:13;25.60;83.30
12225;DHT22;6175;50.956;11.064;2022-08-19T14:23:08;25.50;81.00
12225;DHT22;6175;50.956;11.064;2022-08-19T14:25:35;25.60;82.10
12225;DHT22;6175;50.956;11.064;2022-08-19T14:28:02;25.50;82.30
12225;DHT22;6175;50.956;11.064;2022-08-19T14:30:31;25.40;83.10
12225;DHT22;6175;50.956;11.064;2022-08-19T14:33:00;25.40;82.50
12225;DHT22;6175;50.956;11.064;2022-08-19T14:35:29;25.40;80.80
12225;DHT22;6175;50.956;11.064;2022-08-19T14:40:27;25.30;80.90
12225;DHT22;6175;50.956;11.064;2022-08-19T14:42:56;25.20;81.00
12225;DHT22;6175;50.956;11.064;2022-08-19T14:45:25;25.20;81.30
12225;DHT22;6175;50.956;11.064;2022-08-19T14:50:20;25.30;80.10
12225;DHT22;6175;50.956;11.064;2022-08-19T14:52:48;25.30;80.30
12225;DHT22;6175;50.956;11.064;2022-08-19T14:55:15;25.40;82.00
12225;DHT22;6175;50.956;11.064;2022-08-19T14:57:43;25.30;82.00
12225;DHT22;6175;50.956;11.064;2022-08-19T15:00:11;25.30;83.00
12225;DHT22;6175;50.956;11.064;2022-08-19T15:02:39;25.30;83.70
12225;DHT22;6175;50.956;11.064;2022-08-19T15:05:06;25.30;84.00
12225;DHT22;6175;50.956;11.064;2022-08-19T15:07:34;25.40;82.90
12225;DHT22;6175;50.956;11.064;2022-08-19T15:10:01;25.40;82.30
12225;DHT22;6175;50.956;11.064;2022-08-19T15:12:28;25.40;82.80
12225;DHT22;6175;50.956;11.064;2022-08-19T15:17:23;25.40;83.00
12225;DHT22;6175;50.956;11.064;2022-08-19T15:24:45;25.30;83.10
12225;DHT22;6175;50.956;11.064;2022-08-19T15:27:13;25.30;83.40
12225;DHT22;6175;50.956;11.064;2022-08-19T15:29:43;25.30;84.40
12225;DHT22;6175;50.956;11.064;2022-08-19T15:34:37;25.30;84.40
12225;DHT22;6175;50.956;11.064;2022-08-19T15:37:04;25.30;84.50
12225;DHT22;6175;50.956;11.064;2022-08-19T15:39:31;25.30;85.20
12225;DHT22;6175;50.956;11.064;2022-08-19T15:42:00;25.30;84.50
12225;DHT22;6175;50.956;11.064;2022-08-19T15:44:28;25.30;84.30
12225;DHT22;6175;50.956;11.064;2022-08-19T15:46:55;25.30;83.70
12225;DHT22;6175;50.956;11.064;2022-08-19T15:49:22;25.30;83.60
12225;DHT22;6175;50.956;11.064;2022-08-19T15:51:49;25.40;83.20
12225;DHT22;6175;50.956;11.064;2022-08-19T15:54:19;25.30;83.70
12225;DHT22;6175;50.956;11.064;2022-08-19T15:56:47;25.30;83.40
12225;DHT22;6175;50.956;11.064;2022-08-19T15:59:33;25.20;83.00
12225;DHT22;6175;50.956;11.064;2022-08-19T16:02:20;25.20;83.50
12225;DHT22;6175;50.956;11.064;2022-08-19T16:05:09;25.20;83.00
12225;DHT22;6175;50.956;11.064;2022-08-19T16:07:55;25.10;83.80
12225;DHT22;6175;50.956;11.064;2022-08-19T16:10:22;25.10;83.60
12225;DHT22;6175;50.956;11.064;2022-08-19T16:15:17;25.10;83.80
12225;DHT22;6175;50.956;11.064;2022-08-19T16:17:45;25.10;83.50
12225;DHT22;6175;50.956;11.064;2022-08-19T16:20:13;25.10;83.80
12225;DHT22;6175;50.956;11.064;2022-08-19T16:22:40;25.10;83.80
12225;DHT22;6175;50.956;11.064;2022-08-19T16:25:08;25.10;84.30
12225;DHT22;6175;50.956;11.064;2022-08-19T16:27:35;25.00;84.20
12225;DHT22;6175;50.956;11.064;2022-08-19T16:30:03;25.00;83.50
12225;DHT22;6175;50.956;11.064;2022-08-19T16:32:32;25.00;83.60
12225;DHT22;6175;50.956;11.064;2022-08-19T16:35:02;24.90;84.10
12225;DHT22;6175;50.956;11.064;2022-08-19T16:37:29;25.00;84.40
12225;DHT22;6175;50.956;11.064;2022-08-19T16:47:18;25.10;83.70
12225;DHT22;6175;50.956;11.064;2022-08-19T16:49:47;25.10;82.80
12225;DHT22;6175;50.956;11.064;2022-08-19T16:54:41;25.10;83.30
12225;DHT22;6175;50.956;11.064;2022-08-19T16:57:08;25.10;83.40
12225;DHT22;6175;50.956;11.064;2022-08-19T16:59:34;25.10;84.00
12225;DHT22;6175;50.956;11.064;2022-08-19T17:04:28;25.20;83.60
12225;DHT22;6175;50.956;11.064;2022-08-19T17:06:56;25.10;84.30
12225;DHT22;6175;50.956;11.064;2022-08-19T17:09:23;25.10;83.90
12225;DHT22;6175;50.956;11.064;2022-08-19T17:14:17;25.20;83.30
12225;DHT22;6175;50.956;11.064;2022-08-19T17:16:44;25.20;83.50
12225;DHT22;6175;50.956;11.064;2022-08-19T17:21:39;25.30;85.30
12225;DHT22;6175;50.956;11.064;2022-08-19T17:24:07;25.30;87.10
12225;DHT22;6175;50.956;11.064;2022-08-19T17:26:35;25.20;87.90
12225;DHT22;6175;50.956;11.064;2022-08-19T17:29:04;25.10;88.70
12225;DHT22;6175;50.956;11.064;2022-08-19T17:31:31;25.00;89.30
12225;DHT22;6175;50.956;11.064;2022-08-19T17:33:59;25.00;90.10
12225;DHT22;6175;50.956;11.064;2022-08-19T17:36:28;24.90;90.40
12225;DHT22;6175;50.956;11.064;2022-08-19T17:38:57;24.90;90.40
12225;DHT22;6175;50.956;11.064;2022-08-19T17:41:27;24.80;90.40
12225;DHT22;6175;50.956;11.064;2022-08-19T17:48:50;24.50;90.60
12225;DHT22;6175;50.956;11.064;2022-08-19T17:51:22;24.40;90.80
12225;DHT22;6175;50.956;11.064;2022-08-19T17:53:51;24.20;90.80
12225;DHT22;6175;50.956;11.064;2022-08-19T17:56:19;24.20;91.00
12225;DHT22;6175;50.956;11.064;2022-08-19T17:58:48;24.00;91.30
12225;DHT22;6175;50.956;11.064;2022-08-19T18:01:15;23.90;91.60
12225;DHT22;6175;50.956;11.064;2022-08-19T18:03:43;23.90;91.80
12225;DHT22;6175;50.956;11.064;2022-08-19T18:06:10;23.80;91.90
12225;DHT22;6175;50.956;11.064;2022-08-19T18:08:39;23.70;92.00
12225;DHT22;6175;50.956;11.064;2022-08-19T18:11:07;23.60;92.10
12225;DHT22;6175;50.956;11.064;2022-08-19T18:13:34;23.60;92.30
12225;DHT22;6175;50.956;11.064;2022-08-19T18:16:03;23.50;92.40
12225;DHT22;6175;50.956;11.064;2022-08-19T18:20:58;23.40;92.70
12225;DHT22;6175;50.956;11.064;2022-08-19T18:23:25;23.30;92.90
12225;DHT22;6175;50.956;11.064;2022-08-19T18:28:19;23.20;93.50
12225;DHT22;6175;50.956;11.064;2022-08-19T18:30:46;23.10;94.00
12225;DHT22;6175;50.956;11.064;2022-08-19T18:33:14;23.00;94.30
12225;DHT22;6175;50.956;11.064;2022-08-19T18:35:43;22.90;94.70
12225;DHT22;6175;50.956;11.064;2022-08-19T18:38:12;22.90;95.00
12225;DHT22;6175;50.956;11.064;2022-08-19T18:40:56;22.70;95.40
12225;DHT22;6175;50.956;11.064;2022-08-19T18:43:41;22.60;95.90
12225;DHT22;6175;50.956;11.064;2022-08-19T18:49:12;22.50;96.20
12225;DHT22;6175;50.956;11.064;2022-08-19T19:01:34;22.40;97.10
12225;DHT22;6175;50.956;11.064;2022-08-19T19:04:05;23.30;97.60
12225;DHT22;6175;50.956;11.064;2022-08-19T19:06:37;22.30;97.50
12225;DHT22;6175;50.956;11.064;2022-08-19T19:11:34;22.20;97.70
12225;DHT22;6175;50.956;11.064;2022-08-19T19:14:03;22.20;97.70
12225;DHT22;6175;50.956;11.064;2022-08-19T19:16:35;22.20;97.70
12225;DHT22;6175;50.956;11.064;2022-08-19T19:19:02;22.20;97.80
12225;DHT22;6175;50.956;11.064;2022-08-19T19:21:31;22.10;97.90
12225;DHT22;6175;50.956;11.064;2022-08-19T19:23:59;22.10;98.00
12225;DHT22;6175;50.956;11.064;2022-08-19T19:28:53;22.10;98.20
12225;DHT22;6175;50.956;11.064;2022-08-19T19:31:21;22.00;98.30
12225;DHT22;6175;50.956;11.064;2022-08-19T19:33:53;22.00;98.50
12225;DHT22;6175;50.956;11.064;2022-08-19T19:38:48;22.00;98.70
12225;DHT22;6175;50.956;11.064;2022-08-19T19:41:19;21.90;98.70
12225;DHT22;6175;50.956;11.064;2022-08-19T19:46:14;21.90;98.70
12225;DHT22;6175;50.956;11.064;2022-08-19T19:51:09;21.80;98.90
12225;DHT22;6175;50.956;11.064;2022-08-19T19:56:04;21.80;98.90
12225;DHT22;6175;50.956;11.064;2022-08-19T19:58:33;21.70;99.00
12225;DHT22;6175;50.956;11.064;2022-08-19T20:01:01;21.70;99.10
12225;DHT22;6175;50.956;11.064;2022-08-19T20:03:28;21.70;99.30
12225;DHT22;6175;50.956;11.064;2022-08-19T20:05:56;21.70;99.40